PWSweather.com
Personal Weather Stations
Station Observations
KMOHERMA2
Stony Hill, Hermann, MO 65041

Stony HillHermann, MO 65041

Lat: 38.527, Lon: -91.414

Elevation: 896

Station Type: Davis Vantage Pro 2

High Low Average
Temperature 57.6°F14.2°C 34.1°F1.2°C 44.8°F7.1°C
Dew Point 55.6°F13.1°C 29.5°F-1.4°C 40.8°F4.9°C
Winds 12.0 mph 19.3 kmh Calm Calm 1.0 mph SE1.6 kmh SE
Wind Gusts 14.0 mph22.5 kmh -- 1.0 mph1.6 kmh
Humidity 96% 54% 87%
Pressure 30.03 in1016.9 mb 29.43 in996.6 mb -
Precipitation 0.16 in4.1 mm - -
Hour Temp Dew Point Humidity Winds Wind Gusts Pressure Precip Precip Rate Daily Precip Total
12:00 AM 33.5°F0.8°C 31.8°F-0.1°C 94% 7.0 mph ESE11.3 kmh ESE -- 30.06 in1017.9 mb 0.00 in0.0 mm 0.00 in0.0 mm 0.00 in0.0 mm
12:05 AM 33.5°F0.8°C 31.8°F-0.1°C 94% 6.0 mph ESE9.7 kmh ESE 12.0 mph19.3 kmh 30.06 in1017.9 mb 0.00 in0.0 mm 0.00 in0.0 mm 0.00 in0.0 mm
12:10 AM 33.6°F0.9°C 32.0°F0.0°C 94% 6.0 mph E9.7 kmh E -- 30.05 in1017.6 mb 0.00 in0.0 mm 0.00 in0.0 mm 0.00 in0.0 mm
12:15 AM 33.6°F0.9°C 32.0°F0.0°C 94% 1.0 mph E1.6 kmh E -- 30.05 in1017.6 mb 0.00 in0.0 mm 0.00 in0.0 mm 0.00 in0.0 mm
12:20 AM 33.7°F0.9°C 32.0°F0.0°C 94% 1.0 mph ESE1.6 kmh ESE -- 30.05 in1017.6 mb 0.00 in0.0 mm 0.00 in0.0 mm 0.00 in0.0 mm
12:25 AM 33.7°F0.9°C 32.0°F0.0°C 94% Calm Calm -- 30.04 in1017.3 mb 0.00 in0.0 mm 0.00 in0.0 mm 0.00 in0.0 mm
12:30 AM 33.8°F1.0°C 32.2°F0.1°C 94% 4.0 mph ESE6.4 kmh ESE 9.0 mph14.5 kmh 30.04 in1017.3 mb 0.00 in0.0 mm 0.00 in0.0 mm 0.00 in0.0 mm
12:35 AM 33.8°F1.0°C 32.2°F0.1°C 94% 11.0 mph ESE17.7 kmh ESE -- 30.04 in1017.3 mb 0.00 in0.0 mm 0.00 in0.0 mm 0.00 in0.0 mm
12:40 AM 33.9°F1.1°C 32.4°F0.2°C 94% 1.0 mph ESE1.6 kmh ESE -- 30.04 in1017.3 mb 0.00 in0.0 mm 0.00 in0.0 mm 0.00 in0.0 mm
12:45 AM 34.0°F1.1°C 32.4°F0.2°C 94% 5.0 mph SE8.0 kmh SE -- 30.04 in1017.3 mb 0.00 in0.0 mm 0.00 in0.0 mm 0.00 in0.0 mm
12:50 AM 34.0°F1.1°C 32.4°F0.2°C 94% 4.0 mph SE6.4 kmh SE -- 30.04 in1017.3 mb 0.00 in0.0 mm 0.00 in0.0 mm 0.00 in0.0 mm
12:55 AM 34.1°F1.2°C 32.5°F0.3°C 94% 1.0 mph ESE1.6 kmh ESE 11.0 mph17.7 kmh 30.03 in1016.9 mb 0.00 in0.0 mm 0.00 in0.0 mm 0.00 in0.0 mm
01:00 AM 34.1°F1.2°C 32.5°F0.3°C 94% 4.0 mph ESE6.4 kmh ESE -- 30.03 in1016.9 mb 0.00 in0.0 mm 0.00 in0.0 mm 0.00 in0.0 mm
01:05 AM 34.2°F1.2°C 32.5°F0.3°C 94% 7.0 mph ESE11.3 kmh ESE -- 30.02 in1016.6 mb 0.00 in0.0 mm 0.00 in0.0 mm 0.00 in0.0 mm
01:10 AM 34.3°F1.3°C 32.7°F0.4°C 94% 4.0 mph ESE6.4 kmh ESE -- 30.02 in1016.6 mb 0.00 in0.0 mm 0.00 in0.0 mm 0.00 in0.0 mm
01:15 AM 34.3°F1.3°C 32.7°F0.4°C 94% 5.0 mph ESE8.0 kmh ESE -- 30.02 in1016.6 mb 0.00 in0.0 mm 0.00 in0.0 mm 0.00 in0.0 mm
01:20 AM 34.4°F1.3°C 32.7°F0.4°C 94% 8.0 mph ESE12.9 kmh ESE 12.0 mph19.3 kmh 30.02 in1016.6 mb 0.00 in0.0 mm 0.00 in0.0 mm 0.00 in0.0 mm
01:25 AM 34.4°F1.3°C 32.7°F0.4°C 94% Calm Calm -- 30.01 in1016.3 mb 0.00 in0.0 mm 0.00 in0.0 mm 0.00 in0.0 mm
01:30 AM 34.5°F1.4°C 32.9°F0.5°C 94% Calm Calm -- 30.01 in1016.3 mb 0.00 in0.0 mm 0.00 in0.0 mm 0.00 in0.0 mm
01:35 AM 34.5°F1.4°C 32.9°F0.5°C 94% Calm Calm -- 30.00 in1015.9 mb 0.00 in0.0 mm 0.00 in0.0 mm 0.00 in0.0 mm
01:40 AM 34.5°F1.4°C 32.9°F0.5°C 94% 2.0 mph E3.2 kmh E -- 30.00 in1015.9 mb 0.00 in0.0 mm 0.00 in0.0 mm 0.00 in0.0 mm
01:45 AM 34.5°F1.4°C 32.9°F0.5°C 94% Calm Calm 12.0 mph19.3 kmh 30.01 in1016.3 mb 0.00 in0.0 mm 0.00 in0.0 mm 0.00 in0.0 mm
01:50 AM 34.6°F1.4°C 32.9°F0.5°C 94% 5.0 mph ESE8.0 kmh ESE -- 30.00 in1015.9 mb 0.00 in0.0 mm 0.00 in0.0 mm 0.00 in0.0 mm
01:55 AM 34.7°F1.5°C 33.1°F0.6°C 94% 3.0 mph ESE4.8 kmh ESE -- 30.00 in1015.9 mb 0.00 in0.0 mm 0.00 in0.0 mm 0.00 in0.0 mm
02:00 AM 34.7°F1.5°C 33.1°F0.6°C 94% 4.0 mph ESE6.4 kmh ESE -- 30.00 in1015.9 mb 0.00 in0.0 mm 0.00 in0.0 mm 0.00 in0.0 mm
02:05 AM 34.7°F1.5°C 33.1°F0.6°C 94% 1.0 mph ESE1.6 kmh ESE -- 30.00 in1015.9 mb 0.00 in0.0 mm 0.00 in0.0 mm 0.00 in0.0 mm
02:10 AM 34.7°F1.5°C 33.1°F0.6°C 94% 5.0 mph ESE8.0 kmh ESE 7.0 mph11.3 kmh 30.00 in1015.9 mb 0.00 in0.0 mm 0.00 in0.0 mm 0.00 in0.0 mm
02:15 AM 34.8°F1.6°C 33.3°F0.7°C 94% 5.0 mph ESE8.0 kmh ESE -- 29.99 in1015.6 mb 0.00 in0.0 mm 0.00 in0.0 mm 0.00 in0.0 mm
02:20 AM 34.9°F1.6°C 33.3°F0.7°C 94% 6.0 mph ESE9.7 kmh ESE -- 29.99 in1015.6 mb 0.00 in0.0 mm 0.00 in0.0 mm 0.00 in0.0 mm
02:25 AM 34.9°F1.6°C 33.3°F0.7°C 94% 5.0 mph ESE8.0 kmh ESE -- 29.99 in1015.6 mb 0.00 in0.0 mm 0.00 in0.0 mm 0.00 in0.0 mm
02:30 AM 34.9°F1.6°C 33.3°F0.7°C 94% 3.0 mph ESE4.8 kmh ESE -- 29.99 in1015.6 mb 0.00 in0.0 mm 0.00 in0.0 mm 0.00 in0.0 mm
02:35 AM 35.0°F1.7°C 33.4°F0.8°C 94% 4.0 mph ESE6.4 kmh ESE 10.0 mph16.1 kmh 29.98 in1015.2 mb 0.00 in0.0 mm 0.00 in0.0 mm 0.00 in0.0 mm
02:40 AM 35.0°F1.7°C 33.4°F0.8°C 94% 5.0 mph ESE8.0 kmh ESE -- 29.98 in1015.2 mb 0.00 in0.0 mm 0.00 in0.0 mm 0.00 in0.0 mm
02:45 AM 35.1°F1.7°C 33.8°F1.0°C 95% 1.0 mph E1.6 kmh E -- 29.98 in1015.2 mb 0.00 in0.0 mm 0.00 in0.0 mm 0.00 in0.0 mm
02:50 AM 35.1°F1.7°C 33.8°F1.0°C 95% 5.0 mph E8.0 kmh E -- 29.97 in1014.9 mb 0.00 in0.0 mm 0.00 in0.0 mm 0.00 in0.0 mm
02:55 AM 35.2°F1.8°C 34.0°F1.1°C 95% 5.0 mph ESE8.0 kmh ESE -- 29.97 in1014.9 mb 0.00 in0.0 mm 0.00 in0.0 mm 0.00 in0.0 mm
03:00 AM 35.2°F1.8°C 34.0°F1.1°C 95% 2.0 mph ESE3.2 kmh ESE 11.0 mph17.7 kmh 29.98 in1015.2 mb 0.00 in0.0 mm 0.00 in0.0 mm 0.00 in0.0 mm
03:05 AM 35.2°F1.8°C 34.0°F1.1°C 95% 5.0 mph ESE8.0 kmh ESE -- 29.98 in1015.2 mb 0.00 in0.0 mm 0.00 in0.0 mm 0.00 in0.0 mm
03:10 AM 35.3°F1.8°C 34.0°F1.1°C 95% 6.0 mph ESE9.7 kmh ESE -- 29.98 in1015.2 mb 0.00 in0.0 mm 0.00 in0.0 mm 0.00 in0.0 mm
03:15 AM 35.3°F1.8°C 34.0°F1.1°C 95% 3.0 mph ESE4.8 kmh ESE -- 29.97 in1014.9 mb 0.00 in0.0 mm 0.00 in0.0 mm 0.00 in0.0 mm
03:20 AM 35.3°F1.8°C 34.0°F1.1°C 95% 10.0 mph ESE16.1 kmh ESE -- 29.97 in1014.9 mb 0.00 in0.0 mm 0.00 in0.0 mm 0.00 in0.0 mm
03:25 AM 35.4°F1.9°C 34.2°F1.2°C 95% 6.0 mph ESE9.7 kmh ESE 13.0 mph20.9 kmh 29.97 in1014.9 mb 0.00 in0.0 mm 0.00 in0.0 mm 0.00 in0.0 mm
03:30 AM 35.5°F1.9°C 34.2°F1.2°C 95% 6.0 mph ESE9.7 kmh ESE -- 29.97 in1014.9 mb 0.00 in0.0 mm 0.00 in0.0 mm 0.00 in0.0 mm
03:35 AM 35.6°F2.0°C 34.0°F1.1°C 94% 2.0 mph ESE3.2 kmh ESE -- 29.96 in1014.6 mb 0.00 in0.0 mm 0.00 in0.0 mm 0.00 in0.0 mm
03:40 AM 35.6°F2.0°C 34.0°F1.1°C 94% 2.0 mph ESE3.2 kmh ESE -- 29.95 in1014.2 mb 0.00 in0.0 mm 0.00 in0.0 mm 0.00 in0.0 mm
03:45 AM 35.7°F2.1°C 34.2°F1.2°C 94% 2.0 mph ESE3.2 kmh ESE -- 29.95 in1014.2 mb 0.00 in0.0 mm 0.00 in0.0 mm 0.00 in0.0 mm
03:50 AM 35.7°F2.1°C 34.5°F1.4°C 95% 5.0 mph ESE8.0 kmh ESE 12.0 mph19.3 kmh 29.95 in1014.2 mb 0.00 in0.0 mm 0.00 in0.0 mm 0.00 in0.0 mm
03:55 AM 35.7°F2.1°C 34.2°F1.2°C 94% 2.0 mph ESE3.2 kmh ESE -- 29.94 in1013.9 mb 0.00 in0.0 mm 0.00 in0.0 mm 0.00 in0.0 mm
04:00 AM 35.8°F2.1°C 34.2°F1.2°C 94% 3.0 mph ESE4.8 kmh ESE -- 29.93 in1013.5 mb 0.00 in0.0 mm 0.00 in0.0 mm 0.00 in0.0 mm
04:05 AM 35.8°F2.1°C 34.2°F1.2°C 94% 4.0 mph SE6.4 kmh SE -- 29.93 in1013.5 mb 0.00 in0.0 mm 0.00 in0.0 mm 0.00 in0.0 mm
04:10 AM 35.8°F2.1°C 34.5°F1.4°C 95% Calm Calm -- 29.93 in1013.5 mb 0.00 in0.0 mm 0.00 in0.0 mm 0.00 in0.0 mm
04:15 AM 35.9°F2.2°C 34.7°F1.5°C 95% Calm Calm 13.0 mph20.9 kmh 29.94 in1013.9 mb 0.00 in0.0 mm 0.00 in0.0 mm 0.00 in0.0 mm
04:20 AM 36.0°F2.2°C 34.7°F1.5°C 95% Calm Calm -- 29.93 in1013.5 mb 0.00 in0.0 mm 0.00 in0.0 mm 0.00 in0.0 mm
04:25 AM 36.0°F2.2°C 34.7°F1.5°C 95% Calm Calm -- 29.93 in1013.5 mb 0.00 in0.0 mm 0.00 in0.0 mm 0.00 in0.0 mm
04:30 AM 36.1°F2.3°C 34.9°F1.6°C 95% Calm Calm -- 29.93 in1013.5 mb 0.00 in0.0 mm 0.00 in0.0 mm 0.00 in0.0 mm
04:35 AM 36.1°F2.3°C 34.9°F1.6°C 95% Calm Calm -- 29.92 in1013.2 mb 0.00 in0.0 mm 0.00 in0.0 mm 0.00 in0.0 mm
04:40 AM 36.1°F2.3°C 34.9°F1.6°C 95% 1.0 mph ESE1.6 kmh ESE 6.0 mph9.7 kmh 29.93 in1013.5 mb 0.00 in0.0 mm 0.00 in0.0 mm 0.00 in0.0 mm
04:45 AM 36.2°F2.3°C 34.9°F1.6°C 95% 3.0 mph ESE4.8 kmh ESE -- 29.93 in1013.5 mb 0.00 in0.0 mm 0.00 in0.0 mm 0.00 in0.0 mm
04:50 AM 36.2°F2.3°C 34.9°F1.6°C 95% 4.0 mph ESE6.4 kmh ESE -- 29.92 in1013.2 mb 0.00 in0.0 mm 0.00 in0.0 mm 0.00 in0.0 mm
04:55 AM 36.3°F2.4°C 35.1°F1.7°C 95% 4.0 mph ESE6.4 kmh ESE -- 29.92 in1013.2 mb 0.00 in0.0 mm 0.00 in0.0 mm 0.00 in0.0 mm
05:00 AM 36.3°F2.4°C 35.1°F1.7°C 95% 5.0 mph ESE8.0 kmh ESE -- 29.92 in1013.2 mb 0.00 in0.0 mm 0.00 in0.0 mm 0.00 in0.0 mm
05:05 AM 36.3°F2.4°C 35.1°F1.7°C 95% 5.0 mph SE8.0 kmh SE 13.0 mph20.9 kmh 29.92 in1013.2 mb 0.00 in0.0 mm 0.00 in0.0 mm 0.00 in0.0 mm
05:10 AM 36.3°F2.4°C 35.1°F1.7°C 95% 7.0 mph SE11.3 kmh SE -- 29.91 in1012.9 mb 0.00 in0.0 mm 0.00 in0.0 mm 0.00 in0.0 mm
05:15 AM 36.4°F2.4°C 35.1°F1.7°C 95% 4.0 mph ESE6.4 kmh ESE -- 29.91 in1012.9 mb 0.00 in0.0 mm 0.00 in0.0 mm 0.00 in0.0 mm
05:20 AM 36.4°F2.4°C 35.1°F1.7°C 95% 5.0 mph ESE8.0 kmh ESE -- 29.91 in1012.9 mb 0.00 in0.0 mm 0.00 in0.0 mm 0.00 in0.0 mm
05:25 AM 36.4°F2.4°C 35.1°F1.7°C 95% 9.0 mph ESE14.5 kmh ESE -- 29.91 in1012.9 mb 0.00 in0.0 mm 0.00 in0.0 mm 0.00 in0.0 mm
05:30 AM 36.5°F2.5°C 35.2°F1.8°C 95% 5.0 mph ESE8.0 kmh ESE 10.0 mph16.1 kmh 29.91 in1012.9 mb 0.00 in0.0 mm 0.00 in0.0 mm 0.00 in0.0 mm
05:35 AM 36.5°F2.5°C 35.2°F1.8°C 95% 6.0 mph ESE9.7 kmh ESE -- 29.90 in1012.5 mb 0.00 in0.0 mm 0.00 in0.0 mm 0.00 in0.0 mm
05:40 AM 36.6°F2.6°C 35.4°F1.9°C 95% 7.0 mph ESE11.3 kmh ESE -- 29.90 in1012.5 mb 0.00 in0.0 mm 0.00 in0.0 mm 0.00 in0.0 mm
05:45 AM 36.6°F2.6°C 35.4°F1.9°C 95% 7.0 mph ESE11.3 kmh ESE -- 29.89 in1012.2 mb 0.00 in0.0 mm 0.00 in0.0 mm 0.00 in0.0 mm
05:50 AM 36.7°F2.6°C 35.4°F1.9°C 95% 10.0 mph ESE16.1 kmh ESE -- 29.89 in1012.2 mb 0.00 in0.0 mm 0.00 in0.0 mm 0.00 in0.0 mm
05:55 AM 36.7°F2.6°C 35.4°F1.9°C 95% 6.0 mph ESE9.7 kmh ESE 14.0 mph22.5 kmh 29.89 in1012.2 mb 0.00 in0.0 mm 0.00 in0.0 mm 0.00 in0.0 mm
06:00 AM 36.8°F2.7°C 35.6°F2.0°C 95% 11.0 mph ESE17.7 kmh ESE -- 29.89 in1012.2 mb 0.00 in0.0 mm 0.00 in0.0 mm 0.00 in0.0 mm
06:05 AM 36.8°F2.7°C 35.6°F2.0°C 95% Calm Calm -- 29.89 in1012.2 mb 0.00 in0.0 mm 0.00 in0.0 mm 0.00 in0.0 mm
06:10 AM 36.8°F2.7°C 35.6°F2.0°C 95% Calm Calm -- 29.89 in1012.2 mb 0.00 in0.0 mm 0.00 in0.0 mm 0.00 in0.0 mm
06:15 AM 36.9°F2.7°C 35.6°F2.0°C 95% Calm Calm -- 29.89 in1012.2 mb 0.00 in0.0 mm 0.00 in0.0 mm 0.00 in0.0 mm
06:20 AM 36.9°F2.7°C 35.6°F2.0°C 95% Calm Calm 6.0 mph9.7 kmh 29.89 in1012.2 mb 0.00 in0.0 mm 0.00 in0.0 mm 0.00 in0.0 mm
06:25 AM 36.9°F2.7°C 35.6°F2.0°C 95% 4.0 mph ESE6.4 kmh ESE -- 29.89 in1012.2 mb 0.00 in0.0 mm 0.00 in0.0 mm 0.00 in0.0 mm
06:30 AM 36.9°F2.7°C 35.6°F2.0°C 95% 7.0 mph ESE11.3 kmh ESE -- 29.89 in1012.2 mb 0.00 in0.0 mm 0.00 in0.0 mm 0.00 in0.0 mm
06:35 AM 37.0°F2.8°C 35.8°F2.1°C 95% 7.0 mph ESE11.3 kmh ESE -- 29.89 in1012.2 mb 0.00 in0.0 mm 0.00 in0.0 mm 0.00 in0.0 mm
06:40 AM 37.0°F2.8°C 35.8°F2.1°C 95% 3.0 mph ESE4.8 kmh ESE -- 29.88 in1011.9 mb 0.00 in0.0 mm 0.00 in0.0 mm 0.00 in0.0 mm
06:45 AM 37.0°F2.8°C 35.8°F2.1°C 95% 3.0 mph ESE4.8 kmh ESE 10.0 mph16.1 kmh 29.89 in1012.2 mb 0.00 in0.0 mm 0.00 in0.0 mm 0.00 in0.0 mm
06:50 AM 37.0°F2.8°C 35.8°F2.1°C 95% 3.0 mph ESE4.8 kmh ESE -- 29.88 in1011.9 mb 0.00 in0.0 mm 0.00 in0.0 mm 0.00 in0.0 mm
06:55 AM 37.0°F2.8°C 35.8°F2.1°C 95% 3.0 mph ESE4.8 kmh ESE -- 29.88 in1011.9 mb 0.00 in0.0 mm 0.00 in0.0 mm 0.00 in0.0 mm
07:00 AM 37.1°F2.8°C 35.8°F2.1°C 95% Calm Calm -- 29.87 in1011.5 mb 0.00 in0.0 mm 0.00 in0.0 mm 0.00 in0.0 mm
07:05 AM 37.1°F2.8°C 35.8°F2.1°C 95% Calm Calm -- 29.88 in1011.9 mb 0.00 in0.0 mm 0.00 in0.0 mm 0.00 in0.0 mm
07:10 AM 37.1°F2.8°C 35.8°F2.1°C 95% Calm Calm 6.0 mph9.7 kmh 29.88 in1011.9 mb 0.00 in0.0 mm 0.00 in0.0 mm 0.00 in0.0 mm
07:15 AM 37.1°F2.8°C 35.8°F2.1°C 95% 1.0 mph ESE1.6 kmh ESE -- 29.88 in1011.9 mb 0.00 in0.0 mm 0.00 in0.0 mm 0.00 in0.0 mm
07:20 AM 37.1°F2.8°C 35.8°F2.1°C 95% Calm Calm -- 29.88 in1011.9 mb 0.00 in0.0 mm 0.00 in0.0 mm 0.00 in0.0 mm
07:25 AM 37.1°F2.8°C 35.8°F2.1°C 95% 3.0 mph SE4.8 kmh SE -- 29.88 in1011.9 mb 0.00 in0.0 mm 0.00 in0.0 mm 0.00 in0.0 mm
07:30 AM 37.2°F2.9°C 36.0°F2.2°C 95% Calm Calm -- 29.89 in1012.2 mb 0.00 in0.0 mm 0.00 in0.0 mm 0.00 in0.0 mm
07:35 AM 37.3°F2.9°C 36.0°F2.2°C 95% 3.0 mph SE4.8 kmh SE 9.0 mph14.5 kmh 29.89 in1012.2 mb 0.00 in0.0 mm 0.00 in0.0 mm 0.00 in0.0 mm
07:40 AM 37.3°F2.9°C 36.0°F2.2°C 95% 2.0 mph SE3.2 kmh SE -- 29.89 in1012.2 mb 0.00 in0.0 mm 0.00 in0.0 mm 0.00 in0.0 mm
07:45 AM 37.3°F2.9°C 36.0°F2.2°C 95% Calm Calm -- 29.88 in1011.9 mb 0.00 in0.0 mm 0.00 in0.0 mm 0.00 in0.0 mm
07:50 AM 37.4°F3.0°C 36.1°F2.3°C 95% Calm Calm -- 29.88 in1011.9 mb 0.00 in0.0 mm 0.00 in0.0 mm 0.00 in0.0 mm
07:55 AM 37.4°F3.0°C 36.1°F2.3°C 95% 5.0 mph SE8.0 kmh SE -- 29.89 in1012.2 mb 0.00 in0.0 mm 0.00 in0.0 mm 0.00 in0.0 mm
08:00 AM 37.5°F3.1°C 36.3°F2.4°C 95% 4.0 mph ESE6.4 kmh ESE 12.0 mph19.3 kmh 29.88 in1011.9 mb 0.00 in0.0 mm 0.00 in0.0 mm 0.00 in0.0 mm
08:05 AM 37.5°F3.1°C 36.3°F2.4°C 95% 1.0 mph SE1.6 kmh SE -- 29.88 in1011.9 mb 0.00 in0.0 mm 0.00 in0.0 mm 0.00 in0.0 mm
08:10 AM 37.5°F3.1°C 36.3°F2.4°C 95% 4.0 mph SE6.4 kmh SE -- 29.88 in1011.9 mb 0.00 in0.0 mm 0.00 in0.0 mm 0.00 in0.0 mm
08:15 AM 37.6°F3.1°C 36.3°F2.4°C 95% 2.0 mph SE3.2 kmh SE -- 29.88 in1011.9 mb 0.00 in0.0 mm 0.00 in0.0 mm 0.00 in0.0 mm
08:20 AM 37.6°F3.1°C 36.3°F2.4°C 95% Calm Calm -- 29.88 in1011.9 mb 0.00 in0.0 mm 0.00 in0.0 mm 0.00 in0.0 mm
08:25 AM 37.6°F3.1°C 36.3°F2.4°C 95% 1.0 mph SE1.6 kmh SE 7.0 mph11.3 kmh 29.88 in1011.9 mb 0.00 in0.0 mm 0.00 in0.0 mm 0.00 in0.0 mm
08:30 AM 37.7°F3.2°C 36.5°F2.5°C 95% Calm Calm -- 29.87 in1011.5 mb 0.00 in0.0 mm 0.00 in0.0 mm 0.00 in0.0 mm
08:35 AM 37.7°F3.2°C 36.5°F2.5°C 95% 5.0 mph SE8.0 kmh SE -- 29.87 in1011.5 mb 0.00 in0.0 mm 0.00 in0.0 mm 0.00 in0.0 mm
08:40 AM 37.8°F3.2°C 36.5°F2.5°C 95% 2.0 mph ESE3.2 kmh ESE -- 29.87 in1011.5 mb 0.00 in0.0 mm 0.00 in0.0 mm 0.00 in0.0 mm
08:45 AM 37.8°F3.2°C 36.5°F2.5°C 95% Calm Calm -- 29.87 in1011.5 mb 0.00 in0.0 mm 0.00 in0.0 mm 0.00 in0.0 mm
08:50 AM 37.9°F3.3°C 36.7°F2.6°C 95% Calm Calm 9.0 mph14.5 kmh 29.87 in1011.5 mb 0.00 in0.0 mm 0.00 in0.0 mm 0.00 in0.0 mm
08:55 AM 37.9°F3.3°C 36.7°F2.6°C 95% Calm Calm -- 29.86 in1011.2 mb 0.00 in0.0 mm 0.00 in0.0 mm 0.00 in0.0 mm
09:00 AM 38.0°F3.3°C 36.7°F2.6°C 95% Calm Calm -- 29.86 in1011.2 mb 0.00 in0.0 mm 0.00 in0.0 mm 0.00 in0.0 mm
09:05 AM 38.1°F3.4°C 36.9°F2.7°C 95% 1.0 mph ESE1.6 kmh ESE -- 29.86 in1011.2 mb 0.00 in0.0 mm 0.00 in0.0 mm 0.00 in0.0 mm
09:10 AM 38.2°F3.4°C 36.9°F2.7°C 95% Calm Calm -- 29.86 in1011.2 mb 0.00 in0.0 mm 0.00 in0.0 mm 0.00 in0.0 mm
09:15 AM 38.3°F3.5°C 37.0°F2.8°C 95% Calm Calm 4.0 mph6.4 kmh 29.86 in1011.2 mb 0.00 in0.0 mm 0.00 in0.0 mm 0.00 in0.0 mm
09:20 AM 38.4°F3.6°C 37.2°F2.9°C 95% Calm Calm -- 29.86 in1011.2 mb 0.00 in0.0 mm 0.00 in0.0 mm 0.00 in0.0 mm
09:25 AM 38.6°F3.7°C 37.4°F3.0°C 95% Calm Calm -- 29.85 in1010.8 mb 0.00 in0.0 mm 0.00 in0.0 mm 0.00 in0.0 mm
09:30 AM 38.7°F3.7°C 37.4°F3.0°C 95% Calm Calm -- 29.85 in1010.8 mb 0.00 in0.0 mm 0.00 in0.0 mm 0.00 in0.0 mm
09:35 AM 38.8°F3.8°C 37.6°F3.1°C 95% Calm Calm -- 29.84 in1010.5 mb 0.00 in0.0 mm 0.00 in0.0 mm 0.00 in0.0 mm
09:40 AM 38.9°F3.8°C 37.6°F3.1°C 95% Calm Calm 1.0 mph1.6 kmh 29.85 in1010.8 mb 0.00 in0.0 mm 0.00 in0.0 mm 0.00 in0.0 mm
09:45 AM 38.9°F3.8°C 37.6°F3.1°C 95% Calm Calm -- 29.84 in1010.5 mb 0.00 in0.0 mm 0.00 in0.0 mm 0.00 in0.0 mm
09:50 AM 39.0°F3.9°C 37.8°F3.2°C 95% Calm Calm -- 29.84 in1010.5 mb 0.00 in0.0 mm 0.00 in0.0 mm 0.00 in0.0 mm
09:55 AM 39.2°F4.0°C 37.9°F3.3°C 95% Calm Calm -- 29.84 in1010.5 mb 0.00 in0.0 mm 0.00 in0.0 mm 0.00 in0.0 mm
10:00 AM 39.3°F4.1°C 38.1°F3.4°C 95% Calm Calm -- 29.84 in1010.5 mb 0.00 in0.0 mm 0.00 in0.0 mm 0.00 in0.0 mm
10:05 AM 39.7°F4.3°C 38.5°F3.6°C 95% Calm Calm -- 29.83 in1010.2 mb 0.00 in0.0 mm 0.00 in0.0 mm 0.00 in0.0 mm
10:10 AM 40.1°F4.5°C 38.8°F3.8°C 95% Calm Calm -- 29.83 in1010.2 mb 0.00 in0.0 mm 0.00 in0.0 mm 0.00 in0.0 mm
10:15 AM 40.1°F4.5°C 38.8°F3.8°C 95% Calm Calm -- 29.82 in1009.8 mb 0.00 in0.0 mm 0.00 in0.0 mm 0.00 in0.0 mm
10:20 AM 40.1°F4.5°C 38.8°F3.8°C 95% Calm Calm -- 29.81 in1009.5 mb 0.00 in0.0 mm 0.00 in0.0 mm 0.00 in0.0 mm
10:25 AM 40.3°F4.6°C 39.0°F3.9°C 95% Calm Calm -- 29.81 in1009.5 mb 0.00 in0.0 mm 0.00 in0.0 mm 0.01 in0.3 mm
10:30 AM 40.4°F4.7°C 39.2°F4.0°C 95% Calm Calm -- 29.81 in1009.5 mb 0.00 in0.0 mm 0.00 in0.0 mm 0.01 in0.3 mm
10:35 AM 40.6°F4.8°C 39.4°F4.1°C 95% Calm Calm -- 29.80 in1009.1 mb 0.00 in0.0 mm 0.00 in0.0 mm 0.01 in0.3 mm
10:40 AM 40.7°F4.8°C 39.4°F4.1°C 95% Calm Calm -- 29.79 in1008.8 mb 0.00 in0.0 mm 0.00 in0.0 mm 0.01 in0.3 mm
10:45 AM 40.8°F4.9°C 39.6°F4.2°C 95% Calm Calm -- 29.79 in1008.8 mb 0.00 in0.0 mm 0.00 in0.0 mm 0.01 in0.3 mm
10:50 AM 41.1°F5.1°C 39.9°F4.4°C 95% Calm Calm -- 29.78 in1008.5 mb 0.00 in0.0 mm 0.00 in0.0 mm 0.01 in0.3 mm
10:55 AM 41.3°F5.2°C 40.1°F4.5°C 95% Calm Calm 3.0 mph4.8 kmh 29.79 in1008.8 mb 0.00 in0.0 mm 0.00 in0.0 mm 0.02 in0.5 mm
11:00 AM 42.0°F5.6°C 40.8°F4.9°C 95% Calm Calm -- 29.78 in1008.5 mb 0.00 in0.0 mm 0.00 in0.0 mm 0.02 in0.5 mm
11:05 AM 42.4°F5.8°C 41.2°F5.1°C 95% Calm Calm -- 29.77 in1008.1 mb 0.00 in0.0 mm 0.00 in0.0 mm 0.02 in0.5 mm
11:10 AM 42.8°F6.0°C 41.5°F5.3°C 95% Calm Calm -- 29.76 in1007.8 mb 0.00 in0.0 mm 0.00 in0.0 mm 0.02 in0.5 mm
11:15 AM 43.1°F6.2°C 41.9°F5.5°C 95% Calm Calm -- 29.76 in1007.8 mb 0.00 in0.0 mm 0.00 in0.0 mm 0.02 in0.5 mm
11:20 AM 43.1°F6.2°C 41.9°F5.5°C 95% Calm Calm 3.0 mph4.8 kmh 29.75 in1007.5 mb 0.00 in0.0 mm 0.00 in0.0 mm 0.02 in0.5 mm
11:25 AM 43.3°F6.3°C 42.1°F5.6°C 95% Calm Calm -- 29.76 in1007.8 mb 0.00 in0.0 mm 0.00 in0.0 mm 0.02 in0.5 mm
11:30 AM 43.3°F6.3°C 42.1°F5.6°C 95% Calm Calm -- 29.76 in1007.8 mb 0.00 in0.0 mm 0.00 in0.0 mm 0.02 in0.5 mm
11:35 AM 43.4°F6.3°C 42.1°F5.6°C 95% Calm Calm -- 29.76 in1007.8 mb 0.00 in0.0 mm 0.00 in0.0 mm 0.02 in0.5 mm
11:40 AM 43.4°F6.3°C 42.1°F5.6°C 95% Calm Calm -- 29.76 in1007.8 mb 0.00 in0.0 mm 0.00 in0.0 mm 0.02 in0.5 mm
11:45 AM 43.4°F6.3°C 42.1°F5.6°C 95% Calm Calm 5.0 mph8.0 kmh 29.75 in1007.5 mb 0.00 in0.0 mm 0.00 in0.0 mm 0.02 in0.5 mm
11:50 AM 43.4°F6.3°C 42.1°F5.6°C 95% Calm Calm -- 29.73 in1006.8 mb 0.00 in0.0 mm 0.00 in0.0 mm 0.02 in0.5 mm
11:55 AM 43.5°F6.4°C 42.3°F5.7°C 95% Calm Calm -- 29.73 in1006.8 mb 0.00 in0.0 mm 0.00 in0.0 mm 0.02 in0.5 mm
12:00 PM 43.6°F6.4°C 42.3°F5.7°C 95% Calm Calm -- 29.72 in1006.4 mb 0.00 in0.0 mm 0.00 in0.0 mm 0.02 in0.5 mm
12:05 PM 43.7°F6.5°C 42.4°F5.8°C 95% Calm Calm -- 29.73 in1006.8 mb 0.00 in0.0 mm 0.00 in0.0 mm 0.02 in0.5 mm
12:10 PM 43.7°F6.5°C 42.4°F5.8°C 95% Calm Calm -- 29.72 in1006.4 mb 0.00 in0.0 mm 0.00 in0.0 mm 0.02 in0.5 mm
12:15 PM 43.9°F6.6°C 42.6°F5.9°C 95% Calm Calm -- 29.70 in1005.8 mb 0.00 in0.0 mm 0.00 in0.0 mm 0.02 in0.5 mm
12:20 PM 44.0°F6.7°C 42.8°F6.0°C 95% Calm Calm -- 29.71 in1006.1 mb 0.00 in0.0 mm 0.00 in0.0 mm 0.02 in0.5 mm
12:25 PM 44.2°F6.8°C 43.0°F6.1°C 95% Calm Calm -- 29.70 in1005.8 mb 0.00 in0.0 mm 0.00 in0.0 mm 0.02 in0.5 mm
12:30 PM 44.2°F6.8°C 43.0°F6.1°C 95% Calm Calm -- 29.73 in1006.8 mb 0.00 in0.0 mm 0.00 in0.0 mm 0.02 in0.5 mm
12:35 PM 44.3°F6.8°C 43.0°F6.1°C 95% Calm Calm 7.0 mph11.3 kmh 29.71 in1006.1 mb 0.02 in0.5 mm 0.24 in6.1 mm 0.08 in2.0 mm
12:40 PM 44.8°F7.1°C 43.5°F6.4°C 95% 12.0 mph E19.3 kmh E -- 29.69 in1005.4 mb 0.03 in0.8 mm 0.12 in3.0 mm 0.09 in2.3 mm
12:45 PM 45.1°F7.3°C 43.9°F6.6°C 95% 3.0 mph ESE4.8 kmh ESE -- 29.68 in1005.1 mb 0.03 in0.8 mm 0.00 in0.0 mm 0.09 in2.3 mm
12:50 PM 45.4°F7.4°C 44.1°F6.7°C 95% 2.0 mph E3.2 kmh E -- 29.67 in1004.7 mb 0.03 in0.8 mm 0.00 in0.0 mm 0.09 in2.3 mm
12:55 PM 45.7°F7.6°C 44.4°F6.9°C 95% Calm Calm -- 29.66 in1004.4 mb 0.03 in0.8 mm 0.00 in0.0 mm 0.09 in2.3 mm
01:00 PM 45.9°F7.7°C 44.4°F6.9°C 95% Calm Calm 10.0 mph16.1 kmh 29.65 in1004.1 mb 0.03 in0.8 mm 0.00 in0.0 mm 0.09 in2.3 mm
01:05 PM 46.0°F7.8°C 44.6°F7.0°C 95% 4.0 mph E6.4 kmh E -- 29.66 in1004.4 mb 0.03 in0.8 mm 0.00 in0.0 mm 0.09 in2.3 mm
01:10 PM 46.1°F7.8°C 44.6°F7.0°C 95% Calm Calm -- 29.67 in1004.7 mb 0.03 in0.8 mm 0.00 in0.0 mm 0.09 in2.3 mm
01:15 PM 46.1°F7.8°C 44.6°F7.0°C 95% Calm Calm -- 29.66 in1004.4 mb 0.03 in0.8 mm 0.00 in0.0 mm 0.09 in2.3 mm
01:20 PM 46.1°F7.8°C 44.6°F7.0°C 95% Calm Calm 10.0 mph16.1 kmh 29.66 in1004.4 mb 0.03 in0.8 mm 0.00 in0.0 mm 0.09 in2.3 mm
01:25 PM 46.1°F7.8°C 44.6°F7.0°C 95% Calm Calm -- 29.65 in1004.1 mb 0.03 in0.8 mm 0.00 in0.0 mm 0.09 in2.3 mm
01:30 PM 46.2°F7.9°C 44.8°F7.1°C 95% Calm Calm -- 29.65 in1004.1 mb 0.03 in0.8 mm 0.00 in0.0 mm 0.09 in2.3 mm
01:35 PM 46.2°F7.9°C 44.8°F7.1°C 95% Calm Calm -- 29.65 in1004.1 mb 0.01 in0.3 mm 0.00 in0.0 mm 0.09 in2.3 mm
01:40 PM 46.3°F7.9°C 44.8°F7.1°C 95% Calm Calm -- 29.65 in1004.1 mb 0.00 in0.0 mm 0.00 in0.0 mm 0.09 in2.3 mm
01:45 PM 46.4°F8.0°C 45.0°F7.2°C 95% Calm Calm -- 29.65 in1004.1 mb 0.00 in0.0 mm 0.00 in0.0 mm 0.09 in2.3 mm
01:50 PM 46.4°F8.0°C 45.0°F7.2°C 95% Calm Calm -- 29.66 in1004.4 mb 0.00 in0.0 mm 0.00 in0.0 mm 0.09 in2.3 mm
01:55 PM 46.4°F8.0°C 45.0°F7.2°C 95% Calm Calm -- 29.64 in1003.7 mb 0.00 in0.0 mm 0.00 in0.0 mm 0.09 in2.3 mm
02:00 PM 46.5°F8.1°C 45.1°F7.3°C 95% Calm Calm -- 29.63 in1003.4 mb 0.00 in0.0 mm 0.00 in0.0 mm 0.09 in2.3 mm
02:05 PM 46.5°F8.1°C 45.1°F7.3°C 95% Calm Calm -- 29.63 in1003.4 mb 0.00 in0.0 mm 0.00 in0.0 mm 0.09 in2.3 mm
02:10 PM 46.5°F8.1°C 45.1°F7.3°C 95% Calm Calm -- 29.63 in1003.4 mb 0.00 in0.0 mm 0.00 in0.0 mm 0.09 in2.3 mm
02:15 PM 46.6°F8.1°C 45.1°F7.3°C 95% Calm Calm -- 29.62 in1003.0 mb 0.03 in0.8 mm 0.36 in9.1 mm 0.12 in3.0 mm
02:20 PM 47.4°F8.6°C 46.0°F7.8°C 95% Calm Calm -- 29.60 in1002.4 mb 0.05 in1.3 mm 0.24 in6.1 mm 0.14 in3.6 mm
02:25 PM 47.9°F8.8°C 46.4°F8.0°C 95% 6.0 mph ESE9.7 kmh ESE -- 29.60 in1002.4 mb 0.05 in1.3 mm 0.00 in0.0 mm 0.14 in3.6 mm
02:30 PM 48.6°F9.2°C 47.1°F8.4°C 95% 2.0 mph ESE3.2 kmh ESE -- 29.59 in1002.0 mb 0.05 in1.3 mm 0.00 in0.0 mm 0.14 in3.6 mm
02:35 PM 49.1°F9.5°C 47.7°F8.7°C 95% Calm Calm 9.0 mph14.5 kmh 29.59 in1002.0 mb 0.05 in1.3 mm 0.00 in0.0 mm 0.14 in3.6 mm
02:40 PM 49.3°F9.6°C 47.8°F8.8°C 95% Calm Calm -- 29.59 in1002.0 mb 0.05 in1.3 mm 0.00 in0.0 mm 0.14 in3.6 mm
02:45 PM 49.6°F9.8°C 48.2°F9.0°C 95% 4.0 mph ESE6.4 kmh ESE -- 29.58 in1001.7 mb 0.05 in1.3 mm 0.00 in0.0 mm 0.14 in3.6 mm
02:50 PM 49.7°F9.8°C 48.2°F9.0°C 95% Calm Calm -- 29.57 in1001.4 mb 0.05 in1.3 mm 0.00 in0.0 mm 0.14 in3.6 mm
02:55 PM 49.9°F9.9°C 48.4°F9.1°C 95% Calm Calm -- 29.56 in1001.0 mb 0.05 in1.3 mm 0.00 in0.0 mm 0.14 in3.6 mm
03:00 PM 50.0°F10.0°C 48.6°F9.2°C 95% 2.0 mph ESE3.2 kmh ESE 10.0 mph16.1 kmh 29.55 in1000.7 mb 0.05 in1.3 mm 0.00 in0.0 mm 0.14 in3.6 mm
03:05 PM 50.2°F10.1°C 48.7°F9.3°C 95% 3.0 mph SE4.8 kmh SE -- 29.55 in1000.7 mb 0.05 in1.3 mm 0.00 in0.0 mm 0.14 in3.6 mm
03:10 PM 50.7°F10.4°C 49.3°F9.6°C 95% Calm Calm -- 29.54 in1000.3 mb 0.05 in1.3 mm 0.00 in0.0 mm 0.14 in3.6 mm
03:15 PM 51.4°F10.8°C 50.0°F10.0°C 95% Calm Calm -- 29.54 in1000.3 mb 0.02 in0.5 mm 0.00 in0.0 mm 0.14 in3.6 mm
03:20 PM 52.0°F11.1°C 50.5°F10.3°C 95% Calm Calm -- 29.53 in1000.0 mb 0.00 in0.0 mm 0.00 in0.0 mm 0.14 in3.6 mm
03:25 PM 52.5°F11.4°C 51.4°F10.8°C 96% Calm Calm 7.0 mph11.3 kmh 29.53 in1000.0 mb 0.00 in0.0 mm 0.00 in0.0 mm 0.14 in3.6 mm
03:30 PM 53.1°F11.7°C 51.6°F10.9°C 95% 9.0 mph SE14.5 kmh SE -- 29.52 in999.7 mb 0.00 in0.0 mm 0.00 in0.0 mm 0.14 in3.6 mm
03:35 PM 53.4°F11.9°C 52.0°F11.1°C 95% Calm Calm -- 29.51 in999.3 mb 0.00 in0.0 mm 0.00 in0.0 mm 0.14 in3.6 mm
03:40 PM 53.4°F11.9°C 52.0°F11.1°C 95% 6.0 mph SE9.7 kmh SE -- 29.51 in999.3 mb 0.00 in0.0 mm 0.00 in0.0 mm 0.14 in3.6 mm
03:45 PM 53.8°F12.1°C 52.3°F11.3°C 95% 1.0 mph SE1.6 kmh SE -- 29.50 in999.0 mb 0.00 in0.0 mm 0.00 in0.0 mm 0.14 in3.6 mm
03:50 PM 54.2°F12.3°C 53.1°F11.7°C 96% Calm Calm 10.0 mph16.1 kmh 29.50 in999.0 mb 0.00 in0.0 mm 0.00 in0.0 mm 0.14 in3.6 mm
03:55 PM 54.7°F12.6°C 53.6°F12.0°C 96% Calm Calm -- 29.50 in999.0 mb 0.00 in0.0 mm 0.00 in0.0 mm 0.14 in3.6 mm
04:00 PM 55.0°F12.8°C 53.6°F12.0°C 95% Calm Calm -- 29.49 in998.6 mb 0.00 in0.0 mm 0.00 in0.0 mm 0.14 in3.6 mm
04:05 PM 55.1°F12.8°C 54.0°F12.2°C 96% Calm Calm -- 29.49 in998.6 mb 0.00 in0.0 mm 0.00 in0.0 mm 0.14 in3.6 mm
04:10 PM 55.3°F12.9°C 54.1°F12.3°C 96% Calm Calm -- 29.49 in998.6 mb 0.00 in0.0 mm 0.00 in0.0 mm 0.14 in3.6 mm
04:15 PM 55.5°F13.1°C 54.5°F12.5°C 96% Calm Calm 3.0 mph4.8 kmh 29.48 in998.3 mb 0.00 in0.0 mm 0.00 in0.0 mm 0.14 in3.6 mm
04:20 PM 55.5°F13.1°C 54.5°F12.5°C 96% 6.0 mph SSE9.7 kmh SSE -- 29.48 in998.3 mb 0.00 in0.0 mm 0.00 in0.0 mm 0.14 in3.6 mm
04:25 PM 55.4°F13.0°C 54.0°F12.2°C 95% Calm Calm -- 29.48 in998.3 mb 0.00 in0.0 mm 0.00 in0.0 mm 0.14 in3.6 mm
04:30 PM 55.4°F13.0°C 54.0°F12.2°C 95% Calm Calm -- 29.47 in998.0 mb 0.00 in0.0 mm 0.00 in0.0 mm 0.14 in3.6 mm
04:35 PM 55.7°F13.2°C 54.3°F12.4°C 95% Calm Calm -- 29.46 in997.6 mb 0.00 in0.0 mm 0.00 in0.0 mm 0.14 in3.6 mm
04:40 PM 56.3°F13.5°C 54.9°F12.7°C 95% Calm Calm 5.0 mph8.0 kmh 29.46 in997.6 mb 0.00 in0.0 mm 0.00 in0.0 mm 0.14 in3.6 mm
04:45 PM 57.1°F13.9°C 55.2°F12.9°C 94% Calm Calm -- 29.45 in997.3 mb 0.00 in0.0 mm 0.00 in0.0 mm 0.14 in3.6 mm
04:50 PM 57.4°F14.1°C 55.4°F13.0°C 93% Calm Calm -- 29.45 in997.3 mb 0.00 in0.0 mm 0.00 in0.0 mm 0.14 in3.6 mm
04:55 PM 57.6°F14.2°C 55.6°F13.1°C 93% Calm Calm -- 29.45 in997.3 mb 0.00 in0.0 mm 0.00 in0.0 mm 0.14 in3.6 mm
05:00 PM 57.5°F14.2°C 55.6°F13.1°C 93% Calm Calm -- 29.45 in997.3 mb 0.00 in0.0 mm 0.00 in0.0 mm 0.14 in3.6 mm
05:05 PM 57.4°F14.1°C 55.4°F13.0°C 93% 3.0 mph SSE4.8 kmh SSE 3.0 mph4.8 kmh 29.45 in997.3 mb 0.00 in0.0 mm 0.00 in0.0 mm 0.14 in3.6 mm
05:10 PM 57.2°F14.0°C 55.2°F12.9°C 93% Calm Calm -- 29.45 in997.3 mb 0.00 in0.0 mm 0.00 in0.0 mm 0.14 in3.6 mm
05:15 PM 57.2°F14.0°C 55.2°F12.9°C 93% Calm Calm -- 29.45 in997.3 mb 0.00 in0.0 mm 0.00 in0.0 mm 0.14 in3.6 mm
05:20 PM 57.1°F13.9°C 55.0°F12.8°C 93% Calm Calm -- 29.45 in997.3 mb 0.00 in0.0 mm 0.00 in0.0 mm 0.14 in3.6 mm
05:25 PM 57.1°F13.9°C 54.7°F12.6°C 92% Calm Calm -- 29.45 in997.3 mb 0.00 in0.0 mm 0.00 in0.0 mm 0.14 in3.6 mm
05:30 PM 57.2°F14.0°C 54.9°F12.7°C 92% Calm Calm 1.0 mph1.6 kmh 29.45 in997.3 mb 0.00 in0.0 mm 0.00 in0.0 mm 0.14 in3.6 mm
05:35 PM 57.3°F14.1°C 55.0°F12.8°C 92% Calm Calm -- 29.46 in997.6 mb 0.00 in0.0 mm 0.00 in0.0 mm 0.14 in3.6 mm
05:40 PM 57.3°F14.1°C 55.0°F12.8°C 92% Calm Calm -- 29.46 in997.6 mb 0.00 in0.0 mm 0.00 in0.0 mm 0.14 in3.6 mm
05:45 PM 57.4°F14.1°C 55.0°F12.8°C 92% Calm Calm -- 29.46 in997.6 mb 0.00 in0.0 mm 0.00 in0.0 mm 0.14 in3.6 mm
05:50 PM 57.4°F14.1°C 55.0°F12.8°C 92% Calm Calm -- 29.46 in997.6 mb 0.00 in0.0 mm 0.00 in0.0 mm 0.14 in3.6 mm
05:55 PM 57.4°F14.1°C 54.9°F12.7°C 91% Calm Calm -- 29.46 in997.6 mb 0.00 in0.0 mm 0.00 in0.0 mm 0.14 in3.6 mm
06:00 PM 57.4°F14.1°C 54.9°F12.7°C 91% Calm Calm -- 29.45 in997.3 mb 0.00 in0.0 mm 0.00 in0.0 mm 0.14 in3.6 mm
06:05 PM 57.4°F14.1°C 54.5°F12.5°C 90% Calm Calm -- 29.45 in997.3 mb 0.00 in0.0 mm 0.00 in0.0 mm 0.14 in3.6 mm
06:10 PM 57.5°F14.2°C 54.3°F12.4°C 89% Calm Calm -- 29.44 in997.0 mb 0.00 in0.0 mm 0.00 in0.0 mm 0.14 in3.6 mm
06:15 PM 57.5°F14.2°C 54.3°F12.4°C 89% Calm Calm -- 29.44 in997.0 mb 0.00 in0.0 mm 0.00 in0.0 mm 0.14 in3.6 mm
06:20 PM 57.5°F14.2°C 54.0°F12.2°C 88% Calm Calm -- 29.44 in997.0 mb 0.00 in0.0 mm 0.00 in0.0 mm 0.14 in3.6 mm
06:25 PM 57.5°F14.2°C 54.0°F12.2°C 88% Calm Calm -- 29.44 in997.0 mb 0.00 in0.0 mm 0.00 in0.0 mm 0.14 in3.6 mm
06:30 PM 57.4°F14.1°C 53.8°F12.1°C 88% Calm Calm -- 29.44 in997.0 mb 0.00 in0.0 mm 0.00 in0.0 mm 0.14 in3.6 mm
06:35 PM 57.2°F14.0°C 53.6°F12.0°C 88% Calm Calm -- 29.44 in997.0 mb 0.00 in0.0 mm 0.00 in0.0 mm 0.14 in3.6 mm
06:40 PM 56.9°F13.8°C 53.6°F12.0°C 89% Calm Calm -- 29.44 in997.0 mb 0.02 in0.5 mm 0.24 in6.1 mm 0.16 in4.1 mm
06:45 PM 56.6°F13.7°C 53.8°F12.1°C 90% Calm Calm -- 29.44 in997.0 mb 0.02 in0.5 mm 0.00 in0.0 mm 0.16 in4.1 mm
06:50 PM 56.2°F13.4°C 53.2°F11.8°C 90% Calm Calm -- 29.44 in997.0 mb 0.02 in0.5 mm 0.00 in0.0 mm 0.16 in4.1 mm
06:55 PM 56.0°F13.3°C 53.4°F11.9°C 91% Calm Calm -- 29.44 in997.0 mb 0.02 in0.5 mm 0.00 in0.0 mm 0.16 in4.1 mm
07:00 PM 55.7°F13.2°C 53.2°F11.8°C 91% Calm Calm -- 29.44 in997.0 mb 0.02 in0.5 mm 0.00 in0.0 mm 0.16 in4.1 mm
07:05 PM 55.5°F13.1°C 53.1°F11.7°C 91% Calm Calm -- 29.43 in996.6 mb 0.02 in0.5 mm 0.00 in0.0 mm 0.16 in4.1 mm
07:10 PM 55.4°F13.0°C 52.9°F11.6°C 91% Calm Calm 11.0 mph17.7 kmh 29.44 in997.0 mb 0.02 in0.5 mm 0.00 in0.0 mm 0.16 in4.1 mm
07:15 PM 55.3°F12.9°C 52.3°F11.3°C 90% Calm Calm -- 29.44 in997.0 mb 0.02 in0.5 mm 0.00 in0.0 mm 0.16 in4.1 mm
07:20 PM 55.4°F13.0°C 52.9°F11.6°C 91% Calm Calm -- 29.44 in997.0 mb 0.02 in0.5 mm 0.00 in0.0 mm 0.16 in4.1 mm
07:25 PM 55.2°F12.9°C 52.3°F11.3°C 90% Calm Calm -- 29.44 in997.0 mb 0.02 in0.5 mm 0.00 in0.0 mm 0.16 in4.1 mm
07:30 PM 55.1°F12.8°C 52.2°F11.2°C 90% Calm Calm -- 29.45 in997.3 mb 0.02 in0.5 mm 0.00 in0.0 mm 0.16 in4.1 mm
07:35 PM 54.9°F12.7°C 51.6°F10.9°C 89% Calm Calm -- 29.45 in997.3 mb 0.02 in0.5 mm 0.00 in0.0 mm 0.16 in4.1 mm
07:40 PM 54.8°F12.7°C 51.6°F10.9°C 89% Calm Calm -- 29.45 in997.3 mb 0.00 in0.0 mm 0.00 in0.0 mm 0.16 in4.1 mm
07:45 PM 54.8°F12.7°C 51.4°F10.8°C 88% Calm Calm -- 29.45 in997.3 mb 0.00 in0.0 mm 0.00 in0.0 mm 0.16 in4.1 mm
07:50 PM 54.6°F12.6°C 49.6°F9.8°C 83% Calm Calm -- 29.46 in997.6 mb 0.00 in0.0 mm 0.00 in0.0 mm 0.16 in4.1 mm
07:55 PM 54.7°F12.6°C 48.4°F9.1°C 79% Calm Calm -- 29.46 in997.6 mb 0.00 in0.0 mm 0.00 in0.0 mm 0.16 in4.1 mm
08:00 PM 54.5°F12.5°C 46.4°F8.0°C 74% Calm Calm -- 29.46 in997.6 mb 0.00 in0.0 mm 0.00 in0.0 mm 0.16 in4.1 mm
08:05 PM 54.6°F12.6°C 45.1°F7.3°C 70% Calm Calm -- 29.46 in997.6 mb 0.00 in0.0 mm 0.00 in0.0 mm 0.16 in4.1 mm
08:10 PM 54.5°F12.5°C 44.6°F7.0°C 69% Calm Calm -- 29.47 in998.0 mb 0.00 in0.0 mm 0.00 in0.0 mm 0.16 in4.1 mm
08:15 PM 54.3°F12.4°C 44.1°F6.7°C 68% Calm Calm -- 29.47 in998.0 mb 0.00 in0.0 mm 0.00 in0.0 mm 0.16 in4.1 mm
08:20 PM 53.9°F12.2°C 42.4°F5.8°C 65% Calm Calm -- 29.47 in998.0 mb 0.00 in0.0 mm 0.00 in0.0 mm 0.16 in4.1 mm
08:25 PM 53.7°F12.1°C 41.9°F5.5°C 64% Calm Calm -- 29.47 in998.0 mb 0.00 in0.0 mm 0.00 in0.0 mm 0.16 in4.1 mm
08:30 PM 53.5°F11.9°C 40.6°F4.8°C 62% Calm Calm -- 29.47 in998.0 mb 0.00 in0.0 mm 0.00 in0.0 mm 0.16 in4.1 mm
08:35 PM 53.5°F11.9°C 40.3°F4.6°C 61% Calm Calm -- 29.48 in998.3 mb 0.00 in0.0 mm 0.00 in0.0 mm 0.16 in4.1 mm
08:40 PM 53.3°F11.8°C 39.7°F4.3°C 60% Calm Calm -- 29.48 in998.3 mb 0.00 in0.0 mm 0.00 in0.0 mm 0.16 in4.1 mm
08:45 PM 53.0°F11.7°C 38.7°F3.7°C 58% Calm Calm -- 29.48 in998.3 mb 0.00 in0.0 mm 0.00 in0.0 mm 0.16 in4.1 mm
08:50 PM 52.7°F11.5°C 38.3°F3.5°C 58% Calm Calm -- 29.48 in998.3 mb 0.00 in0.0 mm 0.00 in0.0 mm 0.16 in4.1 mm
08:55 PM 52.5°F11.4°C 38.1°F3.4°C 58% Calm Calm -- 29.48 in998.3 mb 0.00 in0.0 mm 0.00 in0.0 mm 0.16 in4.1 mm
09:00 PM 52.1°F11.2°C 38.3°F3.5°C 59% Calm Calm -- 29.48 in998.3 mb 0.00 in0.0 mm 0.00 in0.0 mm 0.16 in4.1 mm
09:05 PM 51.7°F10.9°C 37.4°F3.0°C 58% Calm Calm -- 29.48 in998.3 mb 0.00 in0.0 mm 0.00 in0.0 mm 0.16 in4.1 mm
09:10 PM 51.5°F10.8°C 36.7°F2.6°C 57% Calm Calm -- 29.47 in998.0 mb 0.00 in0.0 mm 0.00 in0.0 mm 0.16 in4.1 mm
09:15 PM 51.3°F10.7°C 37.0°F2.8°C 58% Calm Calm -- 29.47 in998.0 mb 0.00 in0.0 mm 0.00 in0.0 mm 0.16 in4.1 mm
09:20 PM 51.1°F10.6°C 35.4°F1.9°C 55% Calm Calm -- 29.47 in998.0 mb 0.00 in0.0 mm 0.00 in0.0 mm 0.16 in4.1 mm
09:25 PM 51.1°F10.6°C 36.3°F2.4°C 57% Calm Calm -- 29.47 in998.0 mb 0.00 in0.0 mm 0.00 in0.0 mm 0.16 in4.1 mm
09:30 PM 50.9°F10.5°C 35.8°F2.1°C 56% Calm Calm -- 29.47 in998.0 mb 0.00 in0.0 mm 0.00 in0.0 mm 0.16 in4.1 mm
09:35 PM 50.7°F10.4°C 35.1°F1.7°C 55% Calm Calm -- 29.47 in998.0 mb 0.00 in0.0 mm 0.00 in0.0 mm 0.16 in4.1 mm
09:40 PM 50.6°F10.3°C 35.1°F1.7°C 55% Calm Calm -- 29.46 in997.6 mb 0.00 in0.0 mm 0.00 in0.0 mm 0.16 in4.1 mm
09:45 PM 50.6°F10.3°C 35.1°F1.7°C 55% Calm Calm -- 29.46 in997.6 mb 0.00 in0.0 mm 0.00 in0.0 mm 0.16 in4.1 mm
09:50 PM 50.5°F10.3°C 35.1°F1.7°C 55% Calm Calm -- 29.46 in997.6 mb 0.00 in0.0 mm 0.00 in0.0 mm 0.16 in4.1 mm
09:55 PM 50.5°F10.3°C 35.1°F1.7°C 55% Calm Calm -- 29.45 in997.3 mb 0.00 in0.0 mm 0.00 in0.0 mm 0.16 in4.1 mm
10:00 PM 50.4°F10.2°C 34.3°F1.3°C 54% Calm Calm -- 29.45 in997.3 mb 0.00 in0.0 mm 0.00 in0.0 mm 0.16 in4.1 mm
10:05 PM 50.4°F10.2°C 34.3°F1.3°C 54% Calm Calm -- 29.45 in997.3 mb 0.00 in0.0 mm 0.00 in0.0 mm 0.16 in4.1 mm
10:10 PM 50.2°F10.1°C 34.2°F1.2°C 54% Calm Calm -- 29.44 in997.0 mb 0.00 in0.0 mm 0.00 in0.0 mm 0.16 in4.1 mm
10:15 PM 50.0°F10.0°C 34.0°F1.1°C 54% Calm Calm -- 29.44 in997.0 mb 0.00 in0.0 mm 0.00 in0.0 mm 0.16 in4.1 mm
10:20 PM 49.8°F9.9°C 33.8°F1.0°C 54% Calm Calm -- 29.44 in997.0 mb 0.00 in0.0 mm 0.00 in0.0 mm 0.16 in4.1 mm
10:25 PM 49.7°F9.8°C 34.2°F1.2°C 55% Calm Calm -- 29.44 in997.0 mb 0.00 in0.0 mm 0.00 in0.0 mm 0.16 in4.1 mm
10:30 PM 49.6°F9.8°C 34.2°F1.2°C 55% Calm Calm -- 29.43 in996.6 mb 0.00 in0.0 mm 0.00 in0.0 mm 0.16 in4.1 mm
10:35 PM 49.5°F9.7°C 34.0°F1.1°C 55% Calm Calm -- 29.43 in996.6 mb 0.00 in0.0 mm 0.00 in0.0 mm 0.16 in4.1 mm
10:40 PM 49.4°F9.7°C 34.3°F1.3°C 56% Calm Calm -- 29.43 in996.6 mb 0.00 in0.0 mm 0.00 in0.0 mm 0.16 in4.1 mm
10:45 PM 49.4°F9.7°C 34.0°F1.1°C 55% Calm Calm -- 29.43 in996.6 mb 0.00 in0.0 mm 0.00 in0.0 mm 0.16 in4.1 mm
10:50 PM 49.3°F9.6°C 33.8°F1.0°C 55% Calm Calm -- 29.43 in996.6 mb 0.00 in0.0 mm 0.00 in0.0 mm 0.16 in4.1 mm
10:55 PM 49.3°F9.6°C 33.8°F1.0°C 55% Calm Calm -- 29.43 in996.6 mb 0.00 in0.0 mm 0.00 in0.0 mm 0.16 in4.1 mm
11:00 PM 49.4°F9.7°C 34.3°F1.3°C 56% Calm Calm -- 29.43 in996.6 mb 0.00 in0.0 mm 0.00 in0.0 mm 0.16 in4.1 mm
11:05 PM 49.7°F9.8°C 33.6°F0.9°C 54% Calm Calm -- 29.43 in996.6 mb 0.00 in0.0 mm 0.00 in0.0 mm 0.16 in4.1 mm
11:10 PM 49.9°F9.9°C 33.8°F1.0°C 54% Calm Calm -- 29.43 in996.6 mb 0.00 in0.0 mm 0.00 in0.0 mm 0.16 in4.1 mm
11:15 PM 50.1°F10.1°C 34.7°F1.5°C 55% Calm Calm -- 29.43 in996.6 mb 0.00 in0.0 mm 0.00 in0.0 mm 0.16 in4.1 mm
11:20 PM 50.3°F10.2°C 34.9°F1.6°C 55% Calm Calm -- 29.44 in997.0 mb 0.00 in0.0 mm 0.00 in0.0 mm 0.16 in4.1 mm
11:25 PM 50.5°F10.3°C 34.5°F1.4°C 54% Calm Calm -- 29.43 in996.6 mb 0.00 in0.0 mm 0.00 in0.0 mm 0.16 in4.1 mm
11:30 PM 50.9°F10.5°C 35.2°F1.8°C 55% Calm Calm -- 29.43 in996.6 mb 0.00 in0.0 mm 0.00 in0.0 mm 0.16 in4.1 mm
11:35 PM 51.1°F10.6°C 36.0°F2.2°C 56% Calm Calm -- 29.43 in996.6 mb 0.00 in0.0 mm 0.00 in0.0 mm 0.16 in4.1 mm
11:40 PM 51.0°F10.6°C 36.3°F2.4°C 57% Calm Calm -- 29.43 in996.6 mb 0.00 in0.0 mm 0.00 in0.0 mm 0.16 in4.1 mm
11:45 PM 50.8°F10.4°C 36.5°F2.5°C 58% Calm Calm -- 29.43 in996.6 mb 0.00 in0.0 mm 0.00 in0.0 mm 0.16 in4.1 mm
11:50 PM 50.4°F10.2°C 36.1°F2.3°C 58% Calm Calm -- 29.44 in997.0 mb 0.00 in0.0 mm 0.00 in0.0 mm 0.16 in4.1 mm
11:55 PM 50.1°F10.1°C 36.5°F2.5°C 59% Calm Calm -- 29.44 in997.0 mb 0.00 in0.0 mm 0.00 in0.0 mm 0.16 in4.1 mm